Time;durP1;ratioP1;P1;durP2;ratioP2;P2;SDS_P1;SDS_P2;PMS_P1;PMS_P2;Temp;Humidity;BMP_temperature;BMP_pressure;BME280_temperature;BME280_humidity;BME280_pressure;Samples;Min_cycle;Max_cycle;Signal;HPM_P1;HPM_P2
2021/12/03 00:00:37;;;;;;;6.47;4.90;;;;;;;10.61;61.07;98871.44;5032700;28;20512;-78
2021/12/03 00:03:03;;;;;;;5.20;4.70;;;;;;;10.68;60.63;98876.75;5032701;28;20028;-78
2021/12/03 00:05:29;;;;;;;6.68;4.32;;;;;;;10.34;61.18;98828.22;5032557;28;20056;-78
2021/12/03 00:07:54;;;;;;;4.68;3.88;;;;;;;10.23;61.11;98825.31;5032345;28;20069;-78
2021/12/03 00:10:23;;;;;;;5.85;4.22;;;;;;;10.47;61.35;98861.81;5032245;28;20100;-79
2021/12/03 00:12:50;;;;;;;6.10;4.18;;;;;;;10.27;60.93;98840.56;5032342;28;20040;-78
2021/12/03 00:15:17;;;;;;;4.15;3.75;;;;;;;10.64;61.07;98891.34;5031045;28;20030;-78
2021/12/03 00:17:42;;;;;;;5.13;4.03;;;;;;;10.32;61.32;98853.16;5032402;28;20021;-78
2021/12/03 00:20:12;;;;;;;5.03;3.83;;;;;;;10.32;61.26;98843.44;5032334;28;20104;-78
2021/12/03 00:22:38;;;;;;;6.47;4.22;;;;;;;10.56;61.14;98879.13;5030352;28;20048;-78
2021/12/03 00:25:04;;;;;;;5.90;4.30;;;;;;;10.66;60.95;98887.50;5032358;28;20053;-78
2021/12/03 00:27:29;;;;;;;7.28;4.47;;;;;;;10.48;61.13;98858.16;5032531;28;20079;-78
2021/12/03 00:29:55;;;;;;;5.05;4.38;;;;;;;10.27;60.68;98823.91;5032210;28;20021;-78
2021/12/03 00:32:20;;;;;;;5.10;4.25;;;;;;;10.60;61.16;98869.81;5030813;28;20036;-78
2021/12/03 00:34:46;;;;;;;5.60;4.20;;;;;;;10.58;61.62;98866.53;5032060;28;20021;-78
2021/12/03 00:37:11;;;;;;;5.55;3.92;;;;;;;10.69;61.06;98881.84;5031615;28;20481;-78
2021/12/03 00:39:36;;;;;;;4.82;4.28;;;;;;;10.69;61.30;98883.66;5031769;28;20187;-78
2021/12/03 00:42:03;;;;;;;4.80;3.22;;;;;;;10.14;60.83;98792.94;5031974;28;20075;-78
2021/12/03 00:44:30;;;;;;;4.65;3.70;;;;;;;10.33;60.65;98826.59;5032050;28;20009;-78
2021/12/03 00:46:58;;;;;;;3.90;3.50;;;;;;;10.44;60.95;98846.38;5031761;28;20029;-78
2021/12/03 00:49:25;;;;;;;4.30;3.30;;;;;;;10.38;61.25;98834.72;5030374;28;20094;-78
2021/12/03 00:51:51;;;;;;;3.70;3.30;;;;;;;10.37;60.71;98827.81;5031598;28;20026;-78
2021/12/03 00:54:17;;;;;;;5.43;3.45;;;;;;;10.27;61.13;98816.81;5031504;28;20028;-78
2021/12/03 00:56:43;;;;;;;4.72;3.33;;;;;;;10.68;60.57;98876.75;5030207;28;20036;-78
2021/12/03 00:59:08;;;;;;;3.92;3.10;;;;;;;10.67;61.18;98878.59;5031442;28;20017;-78
2021/12/03 01:01:34;;;;;;;3.92;3.53;;;;;;;10.34;60.78;98812.38;5031769;28;20033;-78
2021/12/03 01:04:00;;;;;;;3.83;3.15;;;;;;;10.29;60.64;98804.22;5031557;28;20040;-78
2021/12/03 01:06:25;;;;;;;4.07;3.40;;;;;;;10.39;60.81;98822.34;5031419;28;20469;-78
2021/12/03 01:08:51;;;;;;;6.25;3.63;;;;;;;10.79;60.68;98863.00;5031574;28;20087;-78
2021/12/03 01:11:17;;;;;;;5.78;4.40;;;;;;;10.54;60.84;98825.72;5031425;28;20101;-78
2021/12/03 01:13:44;;;;;;;5.72;3.80;;;;;;;10.82;60.86;98857.31;5031359;28;20411;-78
2021/12/03 01:16:12;;;;;;;6.68;4.03;;;;;;;10.83;59.96;98857.13;5031479;28;20098;-78
2021/12/03 01:18:39;;;;;;;4.90;4.15;;;;;;;10.85;60.69;98866.69;5031194;28;20104;-78
2021/12/03 01:21:06;;;;;;;4.90;4.32;;;;;;;10.70;60.11;98833.31;5031346;28;20025;-78
2021/12/03 01:23:32;;;;;;;4.72;4.03;;;;;;;10.88;60.30;98851.25;5031344;28;20018;-78
2021/12/03 01:25:58;;;;;;;5.15;3.90;;;;;;;10.91;60.31;98860.63;5031228;28;20026;-78
2021/12/03 01:28:25;;;;;;;6.82;3.72;;;;;;;10.22;60.00;98750.63;5031146;28;20025;-78
2021/12/03 01:30:51;;;;;;;4.30;3.42;;;;;;;10.59;60.10;98815.38;5029848;28;20045;-78
2021/12/03 01:33:16;;;;;;;6.20;4.32;;;;;;;10.64;60.11;98820.91;5031634;28;20072;-77
2021/12/03 01:35:41;;;;;;;8.63;4.20;;;;;;;10.47;59.96;98787.91;5035204;28;20487;-78
2021/12/03 01:38:07;;;;;;;4.70;3.35;;;;;;;10.58;60.18;98797.91;5035252;28;20025;-78
2021/12/03 01:40:35;;;;;;;4.32;3.90;;;;;;;10.47;59.93;98791.38;5034064;28;20064;-78
2021/12/03 01:43:02;;;;;;;5.35;3.38;;;;;;;11.02;59.92;98855.59;5035162;28;20486;-78
2021/12/03 01:45:31;;;;;;;3.92;3.00;;;;;;;10.82;59.57;98830.91;5035186;28;20518;-79
2021/12/03 01:47:58;;;;;;;4.13;3.40;;;;;;;11.05;59.68;98839.34;5034958;28;20101;-78
2021/12/03 01:50:26;;;;;;;5.10;3.88;;;;;;;10.49;59.97;98747.13;5034925;28;20022;-77
2021/12/03 01:52:52;;;;;;;5.43;3.50;;;;;;;10.83;59.55;98792.94;5034941;28;20025;-78
2021/12/03 01:55:18;;;;;;;4.45;3.72;;;;;;;10.70;59.42;98764.66;5034838;28;20516;-78
2021/12/03 01:57:44;;;;;;;5.00;3.83;;;;;;;10.75;59.64;98767.53;5034952;28;20506;-78
2021/12/03 02:00:15;;;;;;;5.70;3.65;;;;;;;10.52;59.86;98724.00;5034833;28;20017;-78
2021/12/03 02:02:41;;;;;;;5.57;3.65;;;;;;;11.13;59.24;98815.38;5034917;28;20126;-78
2021/12/03 02:05:07;;;;;;;5.68;3.65;;;;;;;10.85;59.64;98768.97;5034750;28;20112;-78
2021/12/03 02:07:32;;;;;;;4.70;3.38;;;;;;;10.57;59.36;98709.19;5034570;28;20018;-78
2021/12/03 02:09:58;;;;;;;3.55;3.25;;;;;;;10.77;59.69;98735.63;5034647;28;20026;-78
2021/12/03 02:12:23;;;;;;;4.45;3.75;;;;;;;11.02;59.43;98764.97;5034862;28;20068;-78
2021/12/03 02:14:49;;;;;;;5.97;3.90;;;;;;;10.69;59.59;98723.44;5033416;28;20025;-78
2021/12/03 02:17:14;;;;;;;5.78;3.30;;;;;;;11.14;59.03;98790.59;5034606;28;20037;-78
2021/12/03 02:19:40;;;;;;;7.50;4.40;;;;;;;11.25;59.48;98804.25;5033349;28;20029;-78
2021/12/03 02:22:05;;;;;;;5.30;3.65;;;;;;;10.90;59.16;98738.31;5034482;28;20021;-78
2021/12/03 02:24:31;;;;;;;4.18;2.92;;;;;;;11.28;58.95;98799.38;5034741;28;20406;-79
2021/12/03 02:26:57;;;;;;;4.28;2.95;;;;;;;11.30;59.11;98805.28;5034556;28;20494;-78
2021/12/03 02:29:22;;;;;;;5.75;3.38;;;;;;;11.30;58.96;98800.00;5034750;28;20104;-78
2021/12/03 02:31:48;;;;;;;6.32;3.28;;;;;;;11.33;59.26;98796.97;5049497;28;20021;-78
2021/12/03 02:34:14;;;;;;;4.32;3.15;;;;;;;10.71;59.48;98696.84;5034162;28;20425;-78
2021/12/03 02:36:39;;;;;;;6.20;3.50;;;;;;;11.21;59.16;98773.97;5032746;28;20045;-78
2021/12/03 02:39:04;;;;;;;4.88;3.47;;;;;;;11.03;59.21;98761.31;5034212;28;20030;-78
2021/12/03 02:41:30;;;;;;;5.10;3.83;;;;;;;11.36;59.43;98796.56;5034270;28;20051;-78
2021/12/03 02:43:56;;;;;;;5.88;4.18;;;;;;;10.48;59.54;98644.41;5033729;28;20052;-78
2021/12/03 02:46:22;;;;;;;5.78;3.88;;;;;;;10.44;59.19;98694.13;5033887;28;20018;-78
2021/12/03 02:48:47;;;;;;;3.83;3.42;;;;;;;10.95;59.21;98724.50;5033892;28;20456;-78
2021/12/03 02:51:13;;;;;;;5.53;3.60;;;;;;;11.29;58.93;98787.00;5033841;28;20017;-78
2021/12/03 02:53:38;;;;;;;6.57;3.70;;;;;;;11.03;59.33;98758.66;5034043;28;20028;-78
2021/12/03 02:56:05;;;;;;;7.10;4.30;;;;;;;11.39;59.45;98816.47;5033792;28;20018;-79
2021/12/03 02:58:31;;;;;;;5.95;4.18;;;;;;;10.93;59.20;98743.19;5033837;28;20021;-78
2021/12/03 03:00:57;;;;;;;4.60;3.92;;;;;;;10.92;58.90;98753.97;5032436;28;20044;-78
2021/12/03 03:03:23;;;;;;;5.72;3.88;;;;;;;11.34;59.47;98819.72;5033523;28;20104;-78
2021/12/03 03:05:57;;;;;;;6.65;4.97;;;;;;;11.23;59.50;98799.19;5032448;28;20022;-78
2021/12/03 03:08:24;;;;;;;9.65;7.43;;;;;;;11.34;59.21;98813.63;5032458;28;20430;-78
2021/12/03 03:10:50;;;;;;;9.25;7.13;;;;;;;10.96;59.19;98758.66;5033579;28;20476;-78
2021/12/03 03:13:16;;;;;;;7.47;5.68;;;;;;;10.91;59.87;98745.22;5033362;28;20407;-78
2021/12/03 03:15:42;;;;;;;8.45;5.10;;;;;;;10.97;59.93;98746.25;5033544;28;20017;-78
2021/12/03 03:18:17;;;;;;;7.35;5.65;;;;;;;11.36;59.19;98793.91;5033355;28;20032;-78
2021/12/03 03:20:45;;;;;;;6.88;4.20;;;;;;;11.17;59.51;98775.38;5033333;28;20021;-78
2021/12/03 03:23:12;;;;;;;9.73;4.75;;;;;;;11.39;59.21;98790.06;5033389;28;20096;-78
2021/12/03 03:25:40;;;;;;;5.63;4.97;;;;;;;10.92;59.81;98724.91;5033278;28;20070;-78
2021/12/03 03:28:06;;;;;;;6.85;4.60;;;;;;;10.88;59.76;98724.50;5033351;28;20021;-78
2021/12/03 03:30:32;;;;;;;8.63;5.65;;;;;;;10.95;59.72;98740.34;5033314;28;20071;-79
2021/12/03 03:32:59;;;;;;;7.63;5.22;;;;;;;11.36;60.00;98807.13;5033075;28;20021;-79
2021/12/03 03:35:25;;;;;;;9.60;5.68;;;;;;;10.92;59.89;98748.69;5031751;28;20032;-78
2021/12/03 03:37:51;;;;;;;9.63;6.00;;;;;;;10.73;59.97;98729.94;5032049;28;20029;-78
2021/12/03 03:40:16;;;;;;;8.23;6.10;;;;;;;11.20;60.36;98811.97;5033055;28;20024;-78
2021/12/03 03:42:42;;;;;;;10.32;5.95;;;;;;;10.39;59.69;98693.06;5032627;28;20021;-78
2021/12/03 03:45:13;;;;;;;8.02;5.88;;;;;;;10.64;59.98;98746.97;5032835;28;20485;-78
2021/12/03 03:47:39;;;;;;;7.70;5.85;;;;;;;10.60;60.25;98752.84;5032873;28;20502;-78
2021/12/03 03:50:05;;;;;;;11.13;7.70;;;;;;;10.68;60.22;98750.84;5032742;28;20021;-79
2021/12/03 03:52:31;;;;;;;8.82;6.57;;;;;;;11.06;60.30;98813.72;5032756;28;20025;-78
2021/12/03 03:54:56;;;;;;;11.45;6.68;;;;;;;10.59;60.20;98752.03;5032608;28;20025;-79
2021/12/03 03:57:23;;;;;;;9.75;5.43;;;;;;;10.91;60.28;98797.22;5030595;28;20021;-79
2021/12/03 03:59:48;;;;;;;9.05;4.03;;;;;;;10.99;60.26;98797.06;5031499;28;20014;-78
2021/12/03 04:02:14;;;;;;;5.85;4.47;;;;;;;10.97;60.13;98786.69;5032806;28;20025;-78
2021/12/03 04:04:40;;;;;;;6.47;4.47;;;;;;;11.27;59.75;98831.31;5032639;28;20030;-78
2021/12/03 04:07:05;;;;;;;7.20;4.13;;;;;;;10.88;59.68;98764.09;5032562;28;20026;-78
2021/12/03 04:09:31;;;;;;;6.95;4.60;;;;;;;11.13;60.18;98811.91;5031126;28;20013;-78
2021/12/03 04:11:57;;;;;;;4.78;3.38;;;;;;;11.37;60.13;98840.47;5032519;28;20464;-78
2021/12/03 04:14:22;;;;;;;6.35;4.32;;;;;;;11.40;59.89;98839.25;5031220;28;20472;-78
2021/12/03 04:16:49;;;;;;;6.07;3.85;;;;;;;11.40;59.59;98834.78;5032234;28;20025;-78
2021/12/03 04:19:14;;;;;;;7.50;4.68;;;;;;;11.01;59.64;98777.34;5032099;28;20108;-78
2021/12/03 04:21:40;;;;;;;8.13;5.65;;;;;;;11.25;60.18;98813.00;5032099;28;20100;-78
2021/12/03 04:24:06;;;;;;;8.63;4.20;;;;;;;11.20;59.91;98796.94;5032007;28;20049;-78
2021/12/03 04:26:31;;;;;;;7.53;3.30;;;;;;;11.16;59.82;98771.13;5032540;28;20029;-78
2021/12/03 04:28:57;;;;;;;6.03;2.70;;;;;;;11.24;59.56;98786.78;5032366;28;20206;-78
2021/12/03 04:31:22;;;;;;;5.43;3.08;;;;;;;11.61;59.22;98823.22;5031816;28;20024;-78
2021/12/03 04:33:48;;;;;;;5.55;4.03;;;;;;;11.69;59.91;98843.38;5031936;28;20037;-79
2021/12/03 04:36:13;;;;;;;6.15;3.30;;;;;;;11.39;59.87;98797.97;5031762;28;20132;-78
2021/12/03 04:38:38;;;;;;;4.95;3.33;;;;;;;11.65;59.71;98840.31;5031922;28;20101;-78
2021/12/03 04:41:04;;;;;;;5.00;3.40;;;;;;;11.83;59.91;98862.72;5031931;28;20490;-78
2021/12/03 04:43:31;;;;;;;5.65;3.00;;;;;;;11.84;59.82;98864.34;5031751;28;20028;-78
2021/12/03 04:45:56;;;;;;;4.95;2.67;;;;;;;11.84;59.98;98859.88;5031760;28;20502;-79
2021/12/03 04:48:22;;;;;;;4.45;3.00;;;;;;;11.83;60.22;98863.53;5030479;28;20095;-79
2021/12/03 04:50:48;;;;;;;5.90;2.72;;;;;;;11.44;59.87;98806.94;5031674;28;20056;-78
2021/12/03 04:53:14;;;;;;;4.32;3.17;;;;;;;11.80;60.37;98861.31;5031682;28;20028;-78
2021/12/03 04:55:39;;;;;;;6.45;3.20;;;;;;;11.30;60.67;98772.75;5031563;28;20100;-78
2021/12/03 04:58:05;;;;;;;4.22;2.35;;;;;;;11.65;60.55;98828.91;5031718;28;20118;-78
2021/12/03 05:00:45;;;;;;;4.18;2.40;;;;;;;11.84;59.64;98845.84;5030509;28;20072;-78
2021/12/03 05:03:11;;;;;;;6.30;3.05;;;;;;;11.78;60.44;98828.94;5031519;28;20025;-78
2021/12/03 05:05:37;;;;;;;4.78;2.10;;;;;;;11.69;60.15;98793.94;5031414;28;20433;-78
2021/12/03 05:08:08;;;;;;;3.90;1.98;;;;;;;11.92;60.60;98838.53;5031230;28;20100;-78
2021/12/03 05:10:37;;;;;;;5.03;2.77;;;;;;;11.94;59.84;98839.16;5031550;28;20018;-78
2021/12/03 05:13:06;;;;;;;3.92;1.95;;;;;;;11.69;60.09;98801.06;5031695;28;20057;-78
2021/12/03 05:15:33;;;;;;;5.97;2.20;;;;;;;11.96;60.91;98841.59;5031586;28;20059;-78
2021/12/03 05:18:00;;;;;;;3.17;2.30;;;;;;;11.98;60.20;98842.22;5031407;28;20490;-78
2021/12/03 05:20:25;;;;;;;6.63;3.15;;;;;;;11.40;60.14;98762.59;5031306;28;20025;-78
2021/12/03 05:22:53;;;;;;;4.57;3.05;;;;;;;11.99;59.95;98860.53;5031441;28;20052;-78
2021/12/03 05:25:19;;;;;;;6.88;3.05;;;;;;;12.00;60.62;98856.84;5031416;28;20406;-79
2021/12/03 05:27:44;;;;;;;3.30;2.60;;;;;;;11.68;60.92;98810.00;5031414;28;20441;-78
2021/12/03 05:30:11;;;;;;;7.47;4.05;;;;;;;11.95;60.72;98867.25;5031141;28;20083;-78
2021/12/03 05:32:36;;;;;;;6.10;3.30;;;;;;;11.83;61.00;98831.81;5031163;28;20494;-78
2021/12/03 05:35:03;;;;;;;4.95;3.05;;;;;;;11.52;60.71;98768.09;5030128;28;20108;-78
2021/12/03 05:37:29;;;;;;;5.60;2.63;;;;;;;11.84;60.84;98819.38;5031065;28;20045;-78
2021/12/03 05:39:54;;;;;;;7.60;3.47;;;;;;;11.44;60.97;98761.19;5031345;28;20029;-78
2021/12/03 05:42:20;;;;;;;8.88;3.88;;;;;;;11.69;60.81;98808.97;5031137;28;20021;-79
2021/12/03 05:44:45;;;;;;;5.60;2.78;;;;;;;11.61;60.83;98796.78;5031186;28;20026;-78
2021/12/03 05:47:10;;;;;;;5.25;2.70;;;;;;;11.54;60.94;98789.84;5031058;28;20410;-78
2021/12/03 05:49:36;;;;;;;4.95;2.58;;;;;;;12.13;61.18;98879.84;5029686;28;20018;-78
2021/12/03 05:52:02;;;;;;;5.72;2.33;;;;;;;12.04;61.42;98873.16;5029611;28;20025;-79
2021/12/03 05:54:28;;;;;;;4.40;2.63;;;;;;;12.18;61.75;98888.00;5030838;28;20024;-77
2021/12/03 05:56:54;;;;;;;6.40;2.67;;;;;;;11.79;61.18;98822.66;5029822;28;20470;-78
2021/12/03 05:59:19;;;;;;;5.68;2.90;;;;;;;12.23;61.33;98885.56;5029830;28;20076;-78
2021/12/03 06:01:45;;;;;;;5.32;3.05;;;;;;;12.24;61.32;98886.38;5031230;28;20013;-78
2021/12/03 06:04:10;;;;;;;7.93;4.50;;;;;;;11.87;61.57;98833.03;5030829;28;20033;-78
2021/12/03 06:06:36;;;;;;;8.45;5.35;;;;;;;11.93;61.52;98837.53;5030886;28;20026;-79
2021/12/03 06:09:03;;;;;;;10.65;6.13;;;;;;;12.29;61.90;98882.09;5030966;28;20079;-78
2021/12/03 06:11:29;;;;;;;11.05;5.78;;;;;;;12.31;61.66;98884.53;5029446;28;20021;-78
2021/12/03 06:13:54;;;;;;;10.15;5.75;;;;;;;11.71;61.24;98802.47;5030570;28;20091;-78
2021/12/03 06:16:19;;;;;;;10.30;6.07;;;;;;;11.95;61.31;98837.31;5030692;28;20509;-78
2021/12/03 06:18:45;;;;;;;12.23;6.63;;;;;;;12.07;61.21;98862.97;5030921;28;20033;-78
2021/12/03 06:21:11;;;;;;;9.30;6.75;;;;;;;12.37;61.41;98903.06;5034042;28;20100;-78
2021/12/03 06:23:38;;;;;;;12.02;5.32;;;;;;;12.09;61.56;98849.53;5034519;28;20053;-78
2021/12/03 06:26:05;;;;;;;11.18;6.43;;;;;;;12.03;61.43;98851.16;5033151;28;20109;-78
2021/12/03 06:28:34;;;;;;;8.55;5.22;;;;;;;12.31;61.70;98900.41;5034316;28;20033;-78
2021/12/03 06:30:59;;;;;;;12.02;5.35;;;;;;;11.87;61.51;98840.97;5033998;28;20040;-78
2021/12/03 06:33:25;;;;;;;11.73;6.30;;;;;;;12.34;61.22;98911.41;5034399;28;20021;-78
2021/12/03 06:35:52;;;;;;;13.48;7.13;;;;;;;12.26;61.34;98902.84;5033996;28;20049;-78
2021/12/03 06:38:17;;;;;;;18.10;9.48;;;;;;;11.85;61.47;98844.81;5034334;28;20028;-78
2021/12/03 06:40:44;;;;;;;14.68;9.30;;;;;;;12.32;61.78;98931.97;5034383;28;20022;-78
2021/12/03 06:43:10;;;;;;;15.20;8.25;;;;;;;12.27;61.75;98933.59;5034039;28;20108;-78
2021/12/03 06:45:36;;;;;;;14.70;9.32;;;;;;;11.78;62.21;98868.63;5032793;28;20055;-78
2021/12/03 06:48:02;;;;;;;19.10;11.65;;;;;;;12.27;61.96;98941.53;5033919;28;20021;-79
2021/12/03 06:50:29;;;;;;;23.35;12.93;;;;;;;12.28;62.61;98954.56;5032582;28;20512;-78
2021/12/03 06:53:10;;;;;;;21.70;12.90;;;;;;;11.65;62.07;98842.13;5033906;28;20104;-78
2021/12/03 06:58:11;;;;;;;23.08;13.18;;;;;;;12.12;62.41;98906.53;5048315;28;20122;-78
2021/12/03 07:00:36;;;;;;;21.58;12.00;;;;;;;12.17;61.94;98919.97;5047429;28;20024;-78
2021/12/03 07:03:02;;;;;;;22.05;14.68;;;;;;;12.35;62.27;98938.69;5053458;28;20025;-78
2021/12/03 07:05:27;;;;;;;16.15;9.02;;;;;;;12.02;62.23;98877.81;5040796;28;20083;-78
2021/12/03 07:07:53;;;;;;;15.10;8.68;;;;;;;12.41;62.43;98945.81;5048807;28;20026;-78
2021/12/03 07:10:19;;;;;;;14.57;7.70;;;;;;;12.41;62.29;98916.69;5065038;28;20029;-78
2021/12/03 07:12:44;;;;;;;9.27;4.93;;;;;;;12.63;62.10;98930.50;5045068;28;20063;-78
2021/12/03 07:15:10;;;;;;;10.10;4.63;;;;;;;12.75;62.29;98928.06;5038432;28;20029;-78
2021/12/03 07:17:36;;;;;;;7.65;4.32;;;;;;;12.55;62.19;98894.47;5045018;28;20518;-77
2021/12/03 07:20:02;;;;;;;12.07;4.03;;;;;;;12.61;61.97;98887.53;5051839;28;20024;-78
2021/12/03 07:22:29;;;;;;;7.50;4.82;;;;;;;12.73;61.97;98907.91;5068653;28;20048;-78
2021/12/03 07:24:55;;;;;;;14.43;7.65;;;;;;;13.01;62.06;98950.03;5053122;28;20020;-78
2021/12/03 07:27:21;;;;;;;10.27;6.10;;;;;;;13.02;62.12;98937.59;5037397;28;20036;-77
2021/12/03 07:29:50;;;;;;;13.40;8.40;;;;;;;13.04;62.20;98931.06;5050719;28;20563;-78
2021/12/03 07:32:20;;;;;;;15.40;6.57;;;;;;;13.03;62.26;98933.91;5049329;28;20025;-78
2021/12/03 07:34:46;;;;;;;14.70;6.85;;;;;;;13.10;62.25;98939.19;5032947;28;20498;-77
2021/12/03 07:37:13;;;;;;;14.13;5.25;;;;;;;12.81;61.77;98898.09;5034098;28;20049;-78
2021/12/03 07:39:39;;;;;;;6.07;3.20;;;;;;;13.22;61.92;98956.91;5032607;28;20029;-77
2021/12/03 07:42:05;;;;;;;8.02;4.05;;;;;;;13.27;61.95;98959.75;5032603;28;20368;-78
2021/12/03 07:44:31;;;;;;;6.13;3.50;;;;;;;13.03;61.63;98915.38;5037170;28;20115;-78
2021/12/03 07:46:57;;;;;;;14.63;7.80;;;;;;;13.43;61.97;98979.72;5034758;28;20524;-78
2021/12/03 07:49:24;;;;;;;10.45;6.00;;;;;;;13.49;61.46;98970.91;5031175;28;20013;-78
2021/12/03 07:51:50;;;;;;;10.70;5.70;;;;;;;13.03;61.27;98905.56;5032395;28;20117;-78
2021/12/03 07:54:15;;;;;;;16.25;9.88;;;;;;;13.44;61.09;98964.63;5047598;28;20056;-78
2021/12/03 07:56:40;;;;;;;12.02;7.55;;;;;;;13.36;61.18;98942.59;5037942;28;20536;-78
2021/12/03 07:59:06;;;;;;;12.45;6.93;;;;;;;13.47;61.10;98958.91;5053400;28;20043;-78
2021/12/03 08:01:33;;;;;;;10.40;7.30;;;;;;;13.07;60.80;98868.06;5040462;28;20108;-78
2021/12/03 08:03:58;;;;;;;22.20;13.55;;;;;;;13.50;60.63;98927.47;5061738;28;20032;-79
2021/12/03 08:06:24;;;;;;;15.13;8.38;;;;;;;13.55;60.43;98921.53;5041358;28;20021;-78
2021/12/03 08:08:49;;;;;;;10.80;5.20;;;;;;;14.07;60.21;98980.59;5047545;28;20091;-79
2021/12/03 08:11:15;;;;;;;5.80;2.90;;;;;;;14.14;59.72;98997.34;5032988;28;20026;-78
2021/12/03 08:13:40;;;;;;;6.07;3.42;;;;;;;13.75;59.39;98913.44;5036616;28;20029;-82
2021/12/03 08:16:06;;;;;;;12.65;8.38;;;;;;;14.15;59.22;98964.44;5045632;28;20028;-81
2021/12/03 08:18:31;;;;;;;18.95;13.40;;;;;;;14.19;59.10;98950.53;5037302;28;20032;-81
2021/12/03 08:20:57;;;;;;;20.38;13.02;;;;;;;14.10;58.83;98933.22;5043812;28;20092;-81
2021/12/03 08:23:23;;;;;;;10.77;5.15;;;;;;;14.49;58.72;98979.94;5047104;28;20033;-78
2021/12/03 08:25:49;;;;;;;9.10;4.63;;;;;;;14.45;58.35;98957.50;5042289;28;20029;-78
2021/12/03 08:28:14;;;;;;;11.95;6.82;;;;;;;14.63;58.13;98967.34;5040396;28;20029;-78
2021/12/03 08:30:40;;;;;;;7.47;3.72;;;;;;;14.17;57.52;98886.22;5044938;28;20031;-79
2021/12/03 08:33:05;;;;;;;4.10;2.53;;;;;;;14.22;57.62;98881.06;5051776;28;20029;-78
2021/12/03 08:35:31;;;;;;;9.55;4.15;;;;;;;14.72;57.28;98962.56;5042369;28;20148;-79
2021/12/03 08:37:58;;;;;;;10.05;4.50;;;;;;;14.54;57.35;98923.50;5031260;28;20033;-78
2021/12/03 08:40:24;;;;;;;17.40;11.07;;;;;;;14.45;57.32;98927.47;5044666;28;20021;-78
2021/12/03 08:42:51;;;;;;;5.55;3.58;;;;;;;14.45;57.44;98912.34;5038369;28;20021;-78
2021/12/03 08:45:18;;;;;;;8.38;4.47;;;;;;;14.63;57.41;98938.94;5034010;28;20024;-79
2021/12/03 08:47:48;;;;;;;9.63;5.45;;;;;;;13.57;57.26;98762.97;5036370;28;20082;-78
2021/12/03 08:50:17;;;;;;;5.22;3.28;;;;;;;14.23;57.32;98873.91;5031429;28;20044;-78
2021/12/03 08:55:27;;;;;;;6.45;2.50;;;;;;;14.50;57.28;98874.50;5043453;28;20543;-79
2021/12/03 08:57:53;;;;;;;7.28;3.08;;;;;;;14.07;57.33;98798.25;5038504;28;20026;-79
2021/12/03 09:00:19;;;;;;;5.80;3.28;;;;;;;14.51;57.13;98870.81;5045511;28;20017;-79
2021/12/03 09:02:45;;;;;;;4.82;2.60;;;;;;;14.80;57.05;98906.50;5033807;28;20053;-79
2021/12/03 09:05:12;;;;;;;4.03;2.55;;;;;;;14.84;57.16;98911.13;5031199;28;20013;-78
2021/12/03 09:07:38;;;;;;;6.68;2.50;;;;;;;14.89;57.04;98913.16;5041849;28;20484;-79
2021/12/03 09:10:13;;;;;;;6.70;3.50;;;;;;;14.85;56.86;98890.69;5031353;28;20426;-78
2021/12/03 09:12:41;;;;;;;4.47;1.92;;;;;;;15.02;56.78;98898.91;5036278;28;20016;-78
2021/12/03 09:15:15;;;;;;;3.60;2.17;;;;;;;14.37;56.59;98777.16;5035571;28;20097;-78
2021/12/03 09:20:40;;;;;;;7.20;4.13;;;;;;;15.20;55.96;98881.09;5030816;28;20458;-78
2021/12/03 09:25:56;;;;;;;9.90;3.30;;;;;;;15.12;55.75;98851.34;5033998;28;20612;-79
2021/12/03 09:28:27;;;;;;;9.38;4.13;;;;;;;15.27;56.02;98871.19;5036644;28;20029;-79
2021/12/03 09:30:52;;;;;;;13.90;8.23;;;;;;;14.94;55.67;98839.69;5032955;28;20025;-79
2021/12/03 09:33:19;;;;;;;9.13;3.33;;;;;;;14.91;55.81;98818.88;5027666;28;20033;-78
2021/12/03 09:35:48;;;;;;;5.18;2.97;;;;;;;15.34;55.36;98880.94;5036525;28;20047;-78
2021/12/03 09:38:13;;;;;;;8.20;3.53;;;;;;;15.43;55.01;98879.56;5035224;28;20021;-79
2021/12/03 09:40:40;;;;;;;7.28;4.30;;;;;;;15.55;55.02;98891.06;5032590;28;20009;-78
2021/12/03 09:43:07;;;;;;;8.40;3.40;;;;;;;15.53;54.46;98869.19;5032220;28;20033;-78
2021/12/03 09:45:33;;;;;;;4.55;2.38;;;;;;;15.41;53.67;98812.47;5069314;28;20031;-78
2021/12/03 09:48:02;;;;;;;7.25;2.72;;;;;;;15.38;53.46;98800.44;5045114;28;20021;-79
2021/12/03 09:50:27;;;;;;;8.27;2.67;;;;;;;15.40;53.20;98771.78;5047099;28;20026;-78
2021/12/03 09:53:20;;;;;;;7.88;3.40;;;;;;;15.45;52.79;98752.47;5044678;28;20021;-79
2021/12/03 09:55:45;;;;;;;7.07;2.92;;;;;;;16.02;52.05;98836.16;5041758;28;20502;-78
2021/12/03 10:00:50;;;;;;;10.48;4.15;;;;;;;16.07;51.50;98790.19;5049075;28;20095;-78
2021/12/03 10:13:51;;;;;;;4.07;2.03;;;;;;;16.37;50.17;98788.22;5032572;28;20108;-78
2021/12/03 10:18:50;;;;;;;5.78;2.70;;;;;;;16.83;50.37;98834.53;5040563;28;20025;-79
2021/12/03 10:27:22;;;;;;;10.40;3.33;;;;;;;16.61;50.80;98791.66;5054076;28;20498;-77
2021/12/03 10:30:09;;;;;;;7.28;4.10;;;;;;;16.58;50.81;98788.66;5033719;28;20051;-79
2021/12/03 10:32:52;;;;;;;9.05;4.65;;;;;;;16.29;51.04;98740.59;5037858;28;20033;-77
2021/12/03 10:43:45;;;;;;;9.70;4.85;;;;;;;16.77;50.59;98812.28;5040972;28;20033;-79
2021/12/03 10:49:20;;;;;;;12.75;6.40;;;;;;;16.47;50.73;98745.81;5032634;28;20117;-79
2021/12/03 10:54:42;;;;;;;6.07;3.00;;;;;;;16.28;50.33;98720.34;5035315;28;20111;-79
2021/12/03 10:57:45;;;;;;;17.17;12.57;;;;;;;17.00;50.61;98799.91;5032919;28;20097;-79
2021/12/03 12:09:37;;;;;;;6.85;2.72;;;;;;;17.40;47.14;98767.84;5031870;28;20556;-79
2021/12/03 14:00:33;;;;;;;4.53;2.45;;;;;;;16.49;50.21;98781.03;5031175;28;20063;-78
2021/12/03 14:38:53;;;;;;;12.15;6.55;;;;;;;16.00;50.72;98752.22;5040055;28;20097;-78
2021/12/03 14:44:18;;;;;;;11.27;6.57;;;;;;;16.35;50.85;98818.78;5033444;28;20035;-77
2021/12/03 14:53:12;;;;;;;14.18;8.68;;;;;;;16.14;52.10;98813.00;5046023;28;20095;-78
2021/12/03 14:55:38;;;;;;;22.17;14.13;;;;;;;16.10;52.41;98811.84;5036238;28;20471;-77
2021/12/03 14:58:12;;;;;;;16.63;9.20;;;;;;;15.50;52.75;98731.31;5033925;28;20119;-78
2021/12/03 16:06:16;;;;;;;20.88;11.48;;;;;;;15.09;57.45;98810.06;5051625;28;20494;-82
2021/12/03 16:08:44;;;;;;;18.17;9.20;;;;;;;15.35;57.60;98863.94;5036405;28;20115;-83
2021/12/03 16:21:41;;;;;;;15.48;8.45;;;;;;;15.10;58.75;98838.28;5032590;28;20056;-83
2021/12/03 16:53:39;;;;;;;16.27;7.65;;;;;;;14.28;60.21;98749.28;5031890;28;20060;-83
2021/12/03 16:56:42;;;;;;;20.20;9.77;;;;;;;15.16;60.56;98895.06;5030534;28;20049;-83
2021/12/03 16:58:58;;;;;;;16.65;8.68;;;;;;;14.61;60.07;98805.50;5031326;28;20068;-82
2021/12/03 17:01:37;;;;;;;16.02;7.82;;;;;;;15.15;60.27;98893.44;5031897;28;20486;-82
2021/12/03 17:09:14;;;;;;;18.65;8.95;;;;;;;14.80;59.80;98843.53;5032005;28;20076;-82
2021/12/03 17:49:24;;;;;;;27.20;16.20;;;;;;;14.89;60.51;98903.34;5031137;28;20119;-78
2021/12/03 17:56:44;;;;;;;14.32;8.80;;;;;;;14.87;60.16;98916.03;5030849;28;20112;-78
2021/12/03 17:59:37;;;;;;;16.30;9.10;;;;;;;14.39;59.94;98838.81;5031054;28;20033;-78
2021/12/03 18:02:02;;;;;;;16.30;8.93;;;;;;;14.39;59.70;98835.34;5030746;28;20026;-78
2021/12/03 18:55:47;;;;;;;12.52;6.57;;;;;;;14.76;59.80;98881.38;5029584;28;20517;-78
2021/12/03 18:58:12;;;;;;;13.13;6.45;;;;;;;14.78;59.74;98885.44;5034035;28;20422;-78
2021/12/03 19:00:42;;;;;;;13.63;5.00;;;;;;;14.81;59.75;98889.50;5033969;28;20036;-78
2021/12/03 19:03:20;;;;;;;13.57;5.88;;;;;;;14.33;59.92;98815.81;5033745;28;20029;-78
2021/12/03 19:09:02;;;;;;;10.75;4.45;;;;;;;14.31;60.73;98829.31;5034021;28;20034;-78
2021/12/03 19:13:41;;;;;;;18.35;6.95;;;;;;;14.56;60.86;98839.09;5033522;28;20499;-78
2021/12/03 19:16:10;;;;;;;16.92;8.00;;;;;;;14.77;61.35;98875.03;5033746;28;20022;-79
2021/12/03 19:18:36;;;;;;;15.45;7.28;;;;;;;14.75;61.60;98869.94;5033608;28;20025;-79
2021/12/03 19:21:07;;;;;;;16.45;7.88;;;;;;;14.49;61.70;98825.06;5033435;28;20094;-79
2021/12/03 19:23:33;;;;;;;11.90;7.03;;;;;;;14.21;61.60;98791.00;5033516;28;20032;-78
2021/12/03 19:25:58;;;;;;;16.13;7.32;;;;;;;14.37;62.46;98818.84;5033391;28;20037;-79
2021/12/03 19:28:24;;;;;;;11.27;6.88;;;;;;;14.24;62.68;98803.84;5033465;28;20021;-79
2021/12/03 19:30:49;;;;;;;11.25;6.40;;;;;;;14.78;62.23;98885.44;5033265;28;20483;-78